メルボルン の空港の天気 - METARとTAF

メルボルン空港 ( YMML / MEL ) - オーストラリア ビクトリア州、Melbourne Airport
飛行場実況気象(Metar)
観測時間09/23 09:30 AEST (09/22 23:30 UTC)
風向・風速南 2m/s
視程10km以上
天気現象
少しの雲 雲底高度 460m
気温13℃
湿度82%
気圧1019hPa
METARYMML 222330Z 17004KT 150V220 9999 FEW015 13/10 Q1019
過去の天気等 Google飛行場航空写真 Wunderground天気予報

過去48時間のMETAR

飛行場予報(TAF)
発表時間: 9/23 09:22 AEST (9/22 23:22 UTC)
予報対象時間: 23日10時 AEST ~ 24日16時 AEST
風向・風速北北西 6m/s
視程10km以上
全天の4割程度の雲 雲底高度 550m
23日11時 AEST から
風向・風速北西 7m/s
視程10km以上
なし
23日19時 AEST から
風向・風速北 6m/s
視程10km以上
なし
24日8時 AEST ~ 24日10時 AEST に徐々に
風向・風速西北西 9m/s 瞬間風速 14m/s
視程10km以上
全天の4割程度の雲 雲底高度 1220m
24日11時 AEST から
風向・風速西 9m/s 瞬間風速 16m/s
視程10km以上
天気現象弱いしゅう雨
全天の4割程度の雲 雲底高度 910m
TAF YMML 222322Z 2300/2406 33012KT 9999 SCT018
FM230100 32014KT CAVOK
FM230900 35012KT CAVOK
BECMG 2322/2400 30018G28KT 9999 SCT040
FM240100 28018G32KT 9999 -SHRA SCT030